This is the latest recevied weather packets stored in our database for station/object CT2HRB-13. If no packets are shown the sender has not sent any weather packets the latest 10 day(s).
| Time | Temp. | Humidity | Pressure | Rain* | Wind** | Luminosity | Snow |
|---|---|---|---|---|---|---|---|
| 1778163601 | 20° C | 44% | 1010.2 hPa | - | - | - | - |
| 1778163302 | 20.56° C | 44% | 1010.2 hPa | - | - | - | - |
| 1778163002 | 20.56° C | 44% | 1010.2 hPa | - | - | - | - |
| 1778162701 | 20.56° C | 45% | 1010.1 hPa | - | - | - | - |
| 1778162402 | 20.56° C | 45% | 1010.2 hPa | - | - | - | - |
| 1778162101 | 20° C | 47% | 1010.4 hPa | - | - | - | - |
| 1778161802 | 20° C | 46% | 1010.2 hPa | - | - | - | - |
| 1778161501 | 20.56° C | 46% | 1010.4 hPa | - | - | - | - |
| 1778161201 | 21.11° C | 45% | 1010.3 hPa | - | - | - | - |
| 1778160901 | 20.56° C | 46% | 1010.4 hPa | - | - | - | - |
| 1778160601 | 20.56° C | 44% | 1010.6 hPa | - | - | - | - |
| 1778160301 | 21.11° C | 45% | 1010.4 hPa | - | - | - | - |
| 1778160002 | 20° C | 48% | 1010.2 hPa | - | - | - | - |
| 1778159701 | 20° C | 47% | 1010.4 hPa | - | - | - | - |
| 1778159402 | 19.44° C | 52% | 1010.3 hPa | - | - | - | - |
| 1778159101 | 18.89° C | 52% | 1010.3 hPa | - | - | - | - |
| 1778158802 | 18.89° C | 51% | 1010.5 hPa | - | - | - | - |
| 1778158502 | 19.44° C | 48% | 1010.4 hPa | - | - | - | - |
| 1778158202 | 20° C | 48% | 1010.5 hPa | - | - | - | - |
| 1778157901 | 19.44° C | 50% | 1010.5 hPa | - | - | - | - |
| 1778157601 | 20° C | 50% | 1010.6 hPa | - | - | - | - |
| 1778157302 | 19.44° C | 50% | 1010.8 hPa | - | - | - | - |
| 1778157002 | 18.89° C | 52% | 1010.7 hPa | - | - | - | - |
| 1778156701 | 18.89° C | 52% | 1010.8 hPa | - | - | - | - |
| 1778156401 | 18.89° C | 53% | 1010.8 hPa | - | - | - | - |
* Rain since midnight (hover to see other rain measurements)
** Current wind speed in m/s (hover to see current wind gust speed)